createdAt,value
2022-08-11T00:01:47.353Z,44.30
2022-08-11T00:05:12.350Z,42.04
2022-08-11T00:08:38.333Z,43.13
2022-08-11T00:12:09.378Z,42.33
2022-08-11T00:15:33.399Z,42.18
2022-08-11T00:19:05.340Z,43.20
2022-08-11T00:22:35.368Z,42.71
2022-08-11T00:26:05.323Z,44.07
2022-08-11T00:29:29.374Z,41.79
2022-08-11T00:32:54.311Z,42.56
2022-08-11T00:36:24.914Z,42.18
2022-08-11T00:39:51.349Z,42.97
2022-08-11T00:43:34.350Z,42.92
2022-08-11T00:47:06.361Z,43.29
2022-08-11T00:51:02.435Z,42.58
2022-08-11T00:55:00.324Z,42.07
2022-08-11T00:58:57.967Z,42.05
2022-08-11T01:02:57.349Z,42.04
2022-08-11T01:06:38.353Z,41.57
2022-08-11T01:10:08.300Z,42.06
2022-08-11T01:13:50.383Z,41.71
2022-08-11T01:17:51.329Z,40.62
2022-08-11T01:21:30.351Z,41.83
2022-08-11T01:25:29.398Z,39.04
2022-08-11T01:29:49.488Z,41.16
2022-08-11T01:33:37.410Z,40.48
2022-08-11T01:37:07.976Z,41.75
2022-08-11T01:40:49.406Z,40.81
2022-08-11T01:44:34.359Z,40.94
2022-08-11T01:48:00.402Z,41.18
2022-08-11T01:51:32.376Z,42.03
2022-08-11T01:55:18.374Z,42.90
2022-08-11T01:58:58.342Z,43.95
2022-08-11T02:02:56.425Z,39.76
2022-08-11T02:07:12.394Z,41.50
2022-08-11T02:11:16.433Z,40.80
2022-08-11T02:15:05.429Z,40.59
2022-08-11T02:19:11.371Z,40.75
2022-08-11T02:24:06.655Z,41.17
2022-08-11T02:27:23.379Z,41.30
2022-08-11T02:32:15.426Z,40.59
2022-08-11T02:35:14.461Z,40.36
2022-08-11T02:38:44.762Z,40.91
2022-08-11T02:42:32.649Z,41.33
2022-08-11T02:46:31.400Z,41.03
2022-08-11T02:50:38.392Z,41.91
2022-08-11T02:54:05.383Z,42.63
2022-08-11T02:57:47.474Z,43.64
2022-08-11T03:01:19.399Z,43.18
2022-08-11T03:04:59.442Z,42.00
2022-08-11T03:08:31.391Z,44.07
2022-08-11T03:12:33.467Z,43.18
2022-08-11T03:16:56.412Z,40.50
2022-08-11T03:20:24.478Z,40.75
2022-08-11T03:24:22.418Z,41.72
2022-08-11T03:28:11.455Z,41.10
2022-08-11T03:31:56.442Z,41.07
2022-08-11T03:35:21.753Z,40.75
2022-08-11T03:39:12.477Z,40.97
2022-08-11T03:42:52.373Z,42.05
2022-08-11T03:46:42.464Z,40.11
2022-08-11T03:50:22.420Z,41.74
2022-08-11T03:54:27.415Z,42.60
2022-08-11T03:58:24.393Z,43.55
2022-08-11T04:02:19.423Z,43.34
2022-08-11T04:06:01.472Z,44.23
2022-08-11T04:09:59.445Z,43.21
2022-08-11T04:13:49.516Z,44.17
2022-08-11T04:18:02.435Z,43.64
2022-08-11T04:21:50.464Z,43.80
2022-08-11T04:25:57.599Z,44.80
2022-08-11T04:30:03.738Z,45.25
2022-08-11T04:33:36.448Z,44.72
2022-08-11T04:37:42.466Z,46.71
2022-08-11T04:41:28.443Z,47.84
2022-08-11T04:45:26.414Z,49.26
2022-08-11T04:49:33.991Z,47.44
2022-08-11T04:53:43.403Z,45.34
2022-08-11T04:57:26.429Z,46.00
2022-08-11T05:01:37.289Z,47.79
2022-08-11T05:05:40.494Z,47.85
2022-08-11T05:09:59.451Z,50.07
2022-08-11T05:13:42.462Z,50.51
2022-08-11T05:17:27.402Z,49.74
2022-08-11T05:21:44.919Z,51.57
2022-08-11T05:26:44.735Z,53.36
2022-08-11T05:30:09.463Z,54.55
2022-08-11T05:34:24.466Z,56.00
2022-08-11T05:38:16.476Z,56.10
2022-08-11T05:42:00.491Z,56.58
2022-08-11T05:46:03.096Z,57.25
2022-08-11T05:49:47.436Z,57.92
2022-08-11T05:53:28.480Z,58.33
2022-08-11T05:56:59.530Z,59.30
2022-08-11T06:00:24.485Z,59.58
2022-08-11T06:04:08.502Z,60.24
2022-08-11T06:07:48.521Z,61.23
2022-08-11T06:11:18.534Z,61.15
2022-08-11T06:15:05.449Z,60.87
2022-08-11T06:18:29.534Z,62.21
2022-08-11T06:22:01.436Z,62.81
2022-08-11T06:25:25.472Z,62.05
2022-08-11T06:28:55.427Z,62.59
2022-08-11T06:32:21.536Z,61.58
2022-08-11T06:36:16.502Z,61.74
2022-08-11T06:40:06.484Z,61.22
2022-08-11T06:43:34.088Z,61.36
2022-08-11T06:46:58.517Z,61.04
2022-08-11T06:50:40.455Z,59.32
2022-08-11T06:54:09.478Z,58.63
2022-08-11T06:57:52.443Z,58.62
2022-08-11T07:01:25.578Z,59.30
2022-08-11T07:05:19.503Z,59.11
2022-08-11T07:09:46.534Z,59.79
2022-08-11T07:13:44.075Z,60.18
2022-08-11T07:17:09.553Z,60.00
2022-08-11T07:20:51.493Z,60.15
2022-08-11T07:25:01.597Z,59.92
2022-08-11T07:28:44.535Z,59.90
2022-08-11T07:32:11.507Z,59.94
2022-08-11T07:35:47.514Z,61.12
2022-08-11T07:39:11.536Z,60.46
2022-08-11T07:42:38.741Z,60.06
2022-08-11T07:46:15.211Z,59.81
2022-08-11T07:49:51.496Z,60.91
2022-08-11T07:53:16.510Z,61.20
2022-08-11T07:56:55.450Z,60.94
2022-08-11T08:00:42.539Z,60.24
2022-08-11T08:04:24.551Z,60.14
2022-08-11T08:08:06.530Z,60.16
2022-08-11T08:11:48.534Z,59.21
2022-08-11T08:15:32.538Z,59.33
2022-08-11T08:18:57.508Z,59.64
2022-08-11T08:22:37.870Z,60.03
2022-08-11T08:26:05.550Z,60.71
2022-08-11T08:29:47.526Z,59.64
2022-08-11T08:33:14.520Z,59.80
2022-08-11T08:36:38.569Z,60.39
2022-08-11T08:40:02.584Z,61.28
2022-08-11T08:43:32.511Z,60.60
2022-08-11T08:47:14.579Z,60.83
2022-08-11T08:50:59.477Z,61.30
2022-08-11T08:54:52.508Z,61.27
2022-08-11T08:58:17.525Z,61.97
2022-08-11T09:01:45.809Z,62.49
2022-08-11T09:05:09.470Z,61.29
2022-08-11T09:08:33.564Z,62.69
2022-08-11T09:11:58.520Z,62.99
2022-08-11T09:15:26.570Z,63.69
2022-08-11T09:18:52.517Z,64.18
2022-08-11T09:22:45.526Z,66.99
2022-08-11T09:26:32.518Z,68.12
2022-08-11T09:29:56.532Z,68.03
2022-08-11T09:33:20.559Z,67.76
2022-08-11T09:37:02.524Z,67.13
2022-08-11T09:40:37.506Z,68.60
2022-08-11T09:44:19.562Z,69.99
2022-08-11T09:47:39.274Z,70.48
2022-08-11T09:51:05.610Z,70.19
2022-08-11T09:54:31.557Z,71.39
2022-08-11T09:58:41.907Z,70.87
2022-08-11T10:02:03.723Z,71.30
2022-08-11T10:05:48.554Z,71.27
2022-08-11T10:09:14.530Z,71.54
2022-08-11T10:12:47.526Z,70.95
2022-08-11T10:16:15.710Z,71.30
2022-08-11T10:19:40.518Z,71.62
2022-08-11T10:23:23.521Z,71.92
2022-08-11T10:27:02.563Z,72.32
2022-08-11T10:30:44.540Z,73.14
2022-08-11T10:34:08.553Z,73.01
2022-08-11T10:38:07.442Z,73.43
2022-08-11T10:42:02.797Z,73.87
2022-08-11T10:45:46.514Z,73.85
2022-08-11T10:49:11.582Z,74.12
2022-08-11T10:52:53.552Z,72.63
2022-08-11T10:56:36.531Z,70.61
2022-08-11T11:00:02.708Z,70.11
2022-08-11T11:03:27.603Z,69.69
2022-08-11T11:07:03.684Z,68.73
2022-08-11T11:10:26.545Z,69.05
2022-08-11T11:14:09.547Z,69.03
2022-08-11T11:18:04.511Z,69.38
2022-08-11T11:21:34.555Z,71.36
2022-08-11T11:25:08.667Z,70.97
2022-08-11T11:29:02.607Z,70.77
2022-08-11T11:32:39.714Z,70.57
2022-08-11T11:36:33.575Z,70.49
2022-08-11T11:39:57.624Z,70.75
2022-08-11T11:43:21.648Z,71.55
2022-08-11T11:46:45.519Z,71.27
2022-08-11T11:50:10.577Z,71.25
2022-08-11T11:53:34.531Z,70.55
2022-08-11T11:57:01.578Z,71.75
2022-08-11T12:00:45.591Z,72.99
2022-08-11T12:04:10.577Z,73.77
2022-08-11T12:08:05.000Z,74.75
2022-08-11T12:11:57.553Z,74.63
2022-08-11T12:16:04.206Z,74.21
2022-08-11T12:19:14.583Z,75.00
2022-08-11T12:22:57.625Z,75.48
2022-08-11T12:26:39.535Z,74.98
2022-08-11T12:30:19.584Z,74.79
2022-08-11T12:33:43.615Z,75.31
2022-08-11T12:37:13.902Z,75.95
2022-08-11T12:45:01.566Z,75.06
2022-08-11T12:48:58.383Z,75.48
2022-08-11T12:52:34.600Z,76.68
2022-08-11T12:56:17.627Z,77.28
2022-08-11T12:59:59.616Z,78.29
2022-08-11T13:03:44.598Z,77.41
2022-08-11T13:07:18.638Z,78.53
2022-08-11T13:11:01.644Z,77.51
2022-08-11T13:14:25.605Z,76.87
2022-08-11T13:17:49.574Z,77.16
2022-08-11T13:21:20.644Z,77.24
2022-08-11T13:24:45.585Z,77.32
2022-08-11T13:28:11.574Z,77.10
2022-08-11T13:31:35.738Z,78.28
2022-08-11T13:35:00.585Z,78.64
2022-08-11T13:38:25.646Z,79.44
2022-08-11T13:41:49.603Z,79.80
2022-08-11T13:45:15.634Z,80.21
2022-08-11T13:48:40.654Z,80.34
2022-08-11T13:52:04.597Z,80.98
2022-08-11T13:55:51.090Z,80.99
2022-08-11T13:59:04.821Z,81.27
2022-08-11T14:02:31.775Z,81.83
2022-08-11T14:06:04.636Z,81.85
2022-08-11T14:09:31.567Z,81.29
2022-08-11T14:13:15.618Z,80.97
2022-08-11T14:16:49.578Z,82.42
2022-08-11T14:20:38.199Z,81.76
2022-08-11T14:24:03.547Z,82.37
2022-08-11T14:28:30.144Z,83.41
2022-08-11T14:31:15.762Z,83.38
2022-08-11T14:34:43.610Z,83.91
2022-08-11T14:38:07.616Z,83.34
2022-08-11T14:42:10.512Z,82.61
2022-08-11T14:45:57.624Z,83.58
2022-08-11T14:49:22.563Z,83.28
2022-08-11T14:52:49.634Z,82.79
2022-08-11T14:56:31.573Z,83.03
2022-08-11T14:59:58.599Z,82.86
2022-08-11T15:03:27.984Z,83.86
2022-08-11T15:06:52.639Z,83.89
2022-08-11T15:10:21.602Z,83.60
2022-08-11T15:13:46.657Z,83.96
2022-08-11T15:17:16.596Z,83.77
2022-08-11T15:21:06.619Z,83.63
2022-08-11T15:24:31.598Z,83.92
2022-08-11T15:28:14.611Z,84.62
2022-08-11T15:32:00.647Z,86.06
2022-08-11T15:35:44.617Z,84.78
2022-08-11T15:39:20.672Z,84.11
2022-08-11T15:43:05.698Z,84.33
2022-08-11T15:46:46.609Z,85.15
2022-08-11T15:50:14.111Z,86.02
2022-08-11T15:53:56.938Z,84.73
2022-08-11T15:57:41.791Z,85.40
2022-08-11T16:01:24.688Z,85.85
2022-08-11T16:04:50.654Z,84.89
2022-08-11T16:08:15.625Z,84.94
2022-08-11T16:11:40.685Z,85.49
2022-08-11T16:15:26.586Z,85.71
2022-08-11T16:19:06.623Z,85.44
2022-08-11T16:23:00.445Z,85.34
2022-08-11T16:27:11.020Z,85.96
2022-08-11T16:30:14.664Z,86.14
2022-08-11T16:33:50.379Z,85.28
2022-08-11T16:37:33.627Z,85.38
2022-08-11T16:40:58.661Z,85.57
2022-08-11T16:44:42.650Z,85.22
2022-08-11T16:48:37.055Z,85.35
2022-08-11T16:51:52.646Z,86.06
2022-08-11T16:55:51.349Z,86.76
2022-08-11T16:59:17.650Z,86.65
2022-08-11T17:03:00.661Z,86.24
2022-08-11T17:06:43.614Z,86.77
2022-08-11T17:10:31.759Z,87.77
2022-08-11T17:14:44.632Z,87.34
2022-08-11T17:18:08.667Z,88.06
2022-08-11T17:21:38.659Z,88.59
2022-08-11T17:25:03.665Z,88.57
2022-08-11T17:28:28.669Z,88.61
2022-08-11T17:32:10.660Z,88.28
2022-08-11T17:35:40.627Z,87.29
2022-08-11T17:39:06.657Z,87.62
2022-08-11T17:42:48.651Z,88.12
2022-08-11T17:46:30.648Z,88.90
2022-08-11T17:49:54.661Z,87.88
2022-08-11T17:53:36.707Z,87.68
2022-08-11T17:57:20.474Z,87.52
2022-08-11T18:00:40.684Z,88.12
2022-08-11T18:04:04.646Z,88.16
2022-08-11T18:07:45.688Z,87.52
2022-08-11T18:12:10.464Z,87.46
2022-08-11T18:15:31.637Z,88.00
2022-08-11T18:19:13.895Z,88.24
2022-08-11T18:23:01.834Z,88.05
2022-08-11T18:26:42.652Z,87.13
2022-08-11T18:30:26.884Z,87.47
2022-08-11T18:34:21.672Z,89.00
2022-08-11T18:38:09.783Z,90.23
2022-08-11T18:41:51.708Z,90.02
2022-08-11T18:45:46.129Z,90.31
2022-08-11T18:50:01.446Z,89.58
2022-08-11T18:53:29.656Z,89.93
2022-08-11T18:57:11.700Z,89.45
2022-08-11T19:00:52.700Z,89.75
2022-08-11T19:04:37.813Z,90.29
2022-08-11T19:08:23.678Z,89.82
2022-08-11T19:12:06.738Z,89.04
2022-08-11T19:15:51.655Z,87.67
2022-08-11T19:19:34.702Z,88.51
2022-08-11T19:23:18.694Z,88.45
2022-08-11T19:27:03.662Z,88.02
2022-08-11T19:30:47.717Z,88.10
2022-08-11T19:34:30.657Z,87.87
2022-08-11T19:38:14.825Z,87.32
2022-08-11T19:41:58.657Z,87.52
2022-08-11T19:45:40.696Z,82.70
2022-08-11T19:49:27.669Z,74.41
2022-08-11T19:53:17.417Z,74.20
2022-08-11T19:56:59.675Z,81.03
2022-08-11T20:00:46.692Z,82.32
2022-08-11T20:04:22.199Z,82.93
2022-08-11T20:07:59.704Z,83.64
2022-08-11T20:11:41.673Z,83.92
2022-08-11T20:15:22.688Z,83.44
2022-08-11T20:19:05.664Z,83.11
2022-08-11T20:22:50.710Z,83.45
2022-08-11T20:26:33.708Z,84.47
2022-08-11T20:30:16.706Z,81.89
2022-08-11T20:33:58.691Z,72.40
2022-08-11T20:37:40.719Z,71.13
2022-08-11T20:41:22.675Z,70.26
2022-08-11T20:45:06.716Z,73.46
2022-08-11T20:48:48.667Z,72.50
2022-08-11T20:52:31.716Z,71.05
2022-08-11T20:56:13.721Z,71.24
2022-08-11T20:59:57.096Z,70.48
2022-08-11T21:07:34.041Z,68.17
2022-08-11T21:11:27.767Z,67.64
2022-08-11T21:15:12.706Z,67.35
2022-08-11T21:18:56.718Z,67.65
2022-08-11T21:22:38.743Z,65.13
2022-08-11T21:26:24.723Z,65.21
2022-08-11T21:30:08.706Z,64.04
2022-08-11T21:33:50.721Z,63.93
2022-08-11T21:37:34.713Z,61.47
2022-08-11T21:41:20.722Z,61.52
2022-08-11T21:45:03.689Z,60.13
2022-08-11T21:48:46.736Z,59.45
2022-08-11T21:52:29.768Z,59.55
2022-08-11T21:56:12.743Z,58.81
2022-08-11T22:00:05.727Z,58.86
2022-08-11T22:03:50.115Z,58.00
2022-08-11T22:07:33.744Z,59.28
2022-08-11T22:11:32.168Z,57.54
2022-08-11T22:15:14.743Z,56.48
2022-08-11T22:18:56.891Z,56.12
2022-08-11T22:22:52.219Z,55.79
2022-08-11T22:26:39.735Z,56.01
2022-08-11T22:30:23.824Z,53.09
2022-08-11T22:34:06.731Z,53.55
2022-08-11T22:37:48.741Z,54.26
2022-08-11T22:41:29.715Z,55.52
2022-08-11T22:45:11.732Z,51.91
2022-08-11T22:48:53.765Z,51.88
2022-08-11T22:52:35.759Z,53.35
2022-08-11T22:56:17.769Z,51.25
2022-08-11T23:00:12.754Z,51.27
2022-08-11T23:03:54.777Z,49.83
2022-08-11T23:07:51.184Z,49.66
2022-08-11T23:11:55.284Z,48.94
2022-08-11T23:15:37.746Z,48.78
2022-08-11T23:20:04.625Z,45.60
2022-08-11T23:23:26.738Z,47.09
2022-08-11T23:27:09.802Z,46.70
2022-08-11T23:30:51.771Z,44.79
2022-08-11T23:35:02.291Z,45.86
2022-08-11T23:38:37.771Z,45.40
2022-08-11T23:42:20.097Z,45.18
2022-08-11T23:46:01.780Z,45.48
2022-08-11T23:49:43.782Z,43.51
2022-08-11T23:53:25.840Z,45.58
2022-08-11T23:57:07.832Z,43.79
